Kuching, Malaysia
Current Conditions -  °F | °C
As of 2:00 AM on Thursday 29 Jan 2015 (Local Time) from WBGG Reporting Station
Thunderstorm Thunderstorm  
Wind Chill: 77°   Ceiling: 15000
Heat Index: 78°   Visibility: 6mi
Dew Point: 75°   Wind: 6mph
Humidity: 94%   Direction: 300°WNW
Pressure: 29.85"   Gusts: NA
Location:  1.55°N, 110.34°E
Report Text: WBGG 281800Z 30005KT 260V330 9999 TS FEW015CB SCT020 BKN150 25/24 Q1011 NOSIG
Loading
Personal Weather Stations






























Interactive Weather Map New forecast layout! Learn more

10-Day Weather Forecast

Advertisements
Track Severe Weather on mobile